Coastal Inspiration — CFN4970 — position and weather

sailwx.info

Track history (hours):
 
Tides and Currents Weather Stations Pressure Air Temp Water Temp Dewpoint Dewpoint Depression Visibility Wind Speed Wind Dir Waves Ship Positions

Coastal Inspiration

Last reported at 2017-Mar-23 12:33 UTC. Time now 2017-Mar-23 12:33 UTC.
Position N 49°13' W 123°49'.

Length 160 m; draft 6 m.

Type: Ship. MMSI: 316011408.

Date/timePositionNaut miles runAvg speedWind from/ knotsBaromVisibWave heightAir tempDewpointWater temp
2017-Mar-23 12:33N 49°13' W 123°49'4 4.2
2017-Mar-23 11:29N 49°10' W 123°53'0 0.0
2017-Mar-23 10:11N 49°10' W 123°53'0 0.0
2017-Mar-23 08:16N 49°10' W 123°53'0 0.2
2017-Mar-23 07:33N 49°10' W 123°53'1716.4
2017-Mar-23 06:32N 49°07' W 123°28'1515.2
2017-Mar-23 05:33N 49°00' W 123°08'1111.5
2017-Mar-23 04:34N 49°04' W 123°25'1919.0
2017-Mar-23 03:33N 49°13' W 123°50'1 1.1
2017-Mar-23 02:33N 49°13' W 123°52'1818.3
2017-Mar-23 01:33N 49°06' W 123°25'1312.8
2017-Mar-23 00:33N 49°00' W 123°08'1312.6
2017-Mar-22 23:33N 49°04' W 123°26'1918.7
2017-Mar-22 22:33N 49°12' W 123°52'1 1.0
2017-Mar-22 21:33N 49°12' W 123°53'1818.3
2017-Mar-22 20:33N 49°06' W 123°26'1313.6
2017-Mar-22 19:33N 49°00' W 123°08'1211.9
2017-Mar-22 18:33N 49°04' W 123°25'1918.3
2017-Mar-22 17:32N 49°13' W 123°50'3 2.8
2017-Mar-22 16:33N 49°12' W 123°53'1717.6
2017-Mar-22 15:33N 49°07' W 123°28'1414.4
2017-Mar-22 14:33N 49°00' W 123°08'1111.4
2017-Mar-22 13:33N 49°03' W 123°25'1918.9
2017-Mar-22 12:33N 49°13' W 123°50'4 3.9
2017-Mar-22 11:25N 49°10' W 123°53'0 0.0
2017-Mar-22 10:31N 49°10' W 123°53'0 0.0
2017-Mar-22 09:18N 49°10' W 123°53'0 0.0
2017-Mar-22 08:12N 49°10' W 123°53'2 2.5
2017-Mar-22 07:34N 49°11' W 123°53'1817.7
2017-Mar-22 06:32N 49°07' W 123°26'1414.1
2017-Mar-22 05:34N 49°00' W 123°08'1413.8
2017-Mar-22 04:33N 49°05' W 123°28'1717.5
2017-Mar-22 03:33N 49°13' W 123°52'1 1.3
2017-Mar-22 02:34N 49°13' W 123°50'1919.2
2017-Mar-22 01:33N 49°05' W 123°23'1111.0
2017-Mar-22 00:33N 49°00' W 123°08'1312.6
2017-Mar-21 23:33N 49°04' W 123°26'1818.3
2017-Mar-21 22:33N 49°13' W 123°51'1 0.9
2017-Mar-21 21:33N 49°12' W 123°52'1818.5
2017-Mar-21 20:33N 49°06' W 123°26'1313.2
2017-Mar-21 19:33N 49°00' W 123°08'1111.0
2017-Mar-21 18:33N 49°03' W 123°24'1919.0
2017-Mar-21 17:33N 49°13' W 123°49'1 0.9
2017-Mar-21 16:33N 49°13' W 123°51'1818.0
2017-Mar-21 15:33N 49°06' W 123°25'1312.5
2017-Mar-21 14:33N 49°00' W 123°08'1111.6
2017-Mar-21 13:33N 49°03' W 123°25'1918.5
2017-Mar-21 12:33N 49°13' W 123°49'5 4.5
2017-Mar-21 11:33N 49°10' W 123°53'0 0.0
2017-Mar-21 10:29N 49°10' W 123°53'0 0.0
2017-Mar-21 09:17N 49°10' W 123°53'0 0.0
2017-Mar-21 08:04N 49°10' W 123°53'0 0.9
2017-Mar-21 07:33N 49°10' W 123°53'1716.9
2017-Mar-21 06:33N 49°07' W 123°28'1514.7
2017-Mar-21 05:33N 49°00' W 123°08'1212.5
2017-Mar-21 04:33N 49°04' W 123°26'1817.7
2017-Mar-21 03:33N 49°13' W 123°50'1 1.3
2017-Mar-21 02:34N 49°13' W 123°51'1919.0
2017-Mar-21 01:33N 49°06' W 123°24'1211.9
2017-Mar-21 00:33N 49°00' W 123°08'1212.5
2017-Mar-20 23:33N 49°04' W 123°26'1818.4
2017-Mar-20 22:34N 49°13' W 123°51'1 1.0
2017-Mar-20 21:33N 49°12' W 123°52'1918.5
2017-Mar-20 20:33N 49°06' W 123°26'1312.7
2017-Mar-20 19:33N 49°00' W 123°08'1111.3
2017-Mar-20 18:33N 49°03' W 123°24'1918.7
2017-Mar-20 17:33N 49°13' W 123°49'2 1.8
2017-Mar-20 16:33N 49°13' W 123°52'1918.9
2017-Mar-20 15:33N 49°06' W 123°25'1212.2
2017-Mar-20 14:33N 49°00' W 123°08'1312.6
2017-Mar-20 13:33N 49°05' W 123°26'1817.5
2017-Mar-20 12:33N 49°13' W 123°50'4 1.9
2017-Mar-20 10:27N 49°10' W 123°53'0 0.0
2017-Mar-20 08:14N 49°10' W 123°53'1 1.8
2017-Mar-20 07:34N 49°11' W 123°53'1717.3
2017-Mar-20 06:33N 49°07' W 123°28'1414.4
2017-Mar-20 05:33N 49°00' W 123°08'1212.1
2017-Mar-20 04:34N 49°04' W 123°26'1817.9
2017-Mar-20 03:34N 49°13' W 123°49'3 2.7
2017-Mar-20 02:33N 49°12' W 123°53'1919.0
2017-Mar-20 01:33N 49°06' W 123°25'1312.8
2017-Mar-20 00:33N 49°00' W 123°08'1212.5
2017-Mar-19 23:33N 49°04' W 123°26'1918.6
2017-Mar-19 22:34N 49°12' W 123°52'1 1.0
2017-Mar-19 21:34N 49°12' W 123°53'1818.2
2017-Mar-19 20:33N 49°06' W 123°26'1313.4
2017-Mar-19 19:33N 49°00' W 123°08'1212.4
2017-Mar-19 18:33N 49°04' W 123°26'1818.3
2017-Mar-19 17:34N 49°13' W 123°50'4 3.6
2017-Mar-19 16:30N 49°10' W 123°53'0 0.0
2017-Mar-19 15:18N 49°10' W 123°53'0 0.0
2017-Mar-19 13:17N 49°10' W 123°53'0 0.0
2017-Mar-19 11:16N 49°10' W 123°53'0 0.0
2017-Mar-19 10:22N 49°10' W 123°53'0 0.0
2017-Mar-19 08:15N 49°10' W 123°53'0 0.0
2017-Mar-19 07:17N 49°10' W 123°53'0 0.0
2017-Mar-19 06:32N 49°10' W 123°53'0 0.0
2017-Mar-19 05:29N 49°10' W 123°53'0 0.0
2017-Mar-19 04:28N 49°10' W 123°53'0 0.0
2017-Mar-19 03:04N 49°10' W 123°53'3 6.2
2017-Mar-19 02:33N 49°13' W 123°51'1818.3
2017-Mar-19 01:33N 49°06' W 123°25'1312.6
2017-Mar-19 00:33N 49°00' W 123°08'1312.9
2017-Mar-18 23:33N 49°04' W 123°27'1717.3
2017-Mar-18 22:33N 49°13' W 123°49'3 3.1
2017-Mar-18 21:33N 49°11' W 123°53'1818.3
2017-Mar-18 20:33N 49°06' W 123°26'1313.4
2017-Mar-18 19:33N 49°00' W 123°08'1111.3
2017-Mar-18 18:33N 49°03' W 123°25'1919.0
2017-Mar-18 17:33N 49°13' W 123°50'2 1.5
2017-Mar-18 16:33N 49°12' W 123°52'1818.3
2017-Mar-18 15:33N 49°06' W 123°26'1312.7
2017-Mar-18 14:31N 49°00' W 123°08'1212.9
2017-Mar-18 13:33N 49°04' W 123°26'1818.1
2017-Mar-18 12:34N 49°13' W 123°51'4 2.9
2017-Mar-18 11:21N 49°10' W 123°53'0 0.0
2017-Mar-18 10:18N 49°10' W 123°53'0 0.0
2017-Mar-18 08:11N 49°10' W 123°53'1 1.0
2017-Mar-18 07:33N 49°10' W 123°53'1717.3
2017-Mar-18 06:33N 49°07' W 123°28'1414.3
2017-Mar-18 05:33N 49°00' W 123°08'1212.0
2017-Mar-18 04:33N 49°03' W 123°26'1918.7
2017-Mar-18 03:33N 49°14' W 123°49'2 1.8
2017-Mar-18 02:33N 49°13' W 123°52'1818.3
2017-Mar-18 01:33N 49°06' W 123°26'1313.1
2017-Mar-18 00:33N 49°00' W 123°08'1212.2
2017-Mar-17 23:33N 49°04' W 123°26'1919.1
2017-Mar-17 22:33N 49°12' W 123°52'1 0.5
2017-Mar-17 21:33N 49°12' W 123°53'2019.9
2017-Mar-17 20:34N 49°06' W 123°25'1210.2
2017-Mar-17 19:22N 49°00' W 123°08'1214.6
2017-Mar-17 18:33N 49°04' W 123°25'1818.3
2017-Mar-17 17:33N 49°13' W 123°49'2 1.5
2017-Mar-17 16:33N 49°13' W 123°52'1817.9
2017-Mar-17 15:33N 49°06' W 123°26'1313.0
2017-Mar-17 14:32N 49°00' W 123°08'1212.6
2017-Mar-17 13:33N 49°04' W 123°26'1818.0
2017-Mar-17 12:33N 49°13' W 123°50'4 1.9
2017-Mar-17 10:26N 49°10' W 123°53'0 0.0
2017-Mar-17 08:25N 49°10' W 123°53'5 6.2
2017-Mar-17 07:34N 49°13' W 123°47'1918.7
2017-Mar-17 06:33N 49°04' W 123°21'10 9.5
2017-Mar-17 05:33N 49°00' W 123°08'1515.2
2017-Mar-17 04:33N 49°06' W 123°29'1616.3
2017-Mar-17 03:34N 49°10' W 123°53'5 4.7
2017-Mar-17 02:32N 49°13' W 123°48'1818.8
2017-Mar-17 01:33N 49°05' W 123°23'1110.7
2017-Mar-17 00:33N 49°00' W 123°08'1313.3
2017-Mar-16 23:33N 49°05' W 123°27'1717.2
2017-Mar-16 22:33N 49°13' W 123°50'3 2.8
2017-Mar-16 21:33N 49°11' W 123°53'1818.1
2017-Mar-16 20:33N 49°07' W 123°27'1413.8
2017-Mar-16 19:33N 49°00' W 123°08'1211.8
2017-Mar-16 18:33N 49°04' W 123°25'1918.7
2017-Mar-16 17:33N 49°13' W 123°50'1 0.9
2017-Mar-16 16:33N 49°13' W 123°51'1818.2
2017-Mar-16 15:33N 49°06' W 123°26'1313.0
2017-Mar-16 14:33N 49°00' W 123°08'1212.1
2017-Mar-16 13:33N 49°04' W 123°25'1817.9
2017-Mar-16 12:33N 49°13' W 123°49'4 4.2
2017-Mar-16 11:33N 49°10' W 123°53'0 0.0
2017-Mar-16 10:33N 49°10' W 123°53'0 0.0
2017-Mar-16 09:33N 49°10' W 123°53'0 0.0
2017-Mar-16 08:33N 49°10' W 123°53'0 0.3
2017-Mar-16 07:34N 49°10' W 123°53'1716.5
2017-Mar-16 06:32N 49°07' W 123°28'1515.0
2017-Mar-16 05:33N 49°00' W 123°08'1110.8
2017-Mar-16 04:33N 49°03' W 123°24'1919.3
2017-Mar-16 03:34N 49°13' W 123°49'3 3.3
2017-Mar-16 02:33N 49°11' W 123°53'1818.0
2017-Mar-16 01:33N 49°06' W 123°27'1413.7
2017-Mar-16 00:33N 49°00' W 123°08'1211.9
2017-Mar-15 23:33N 49°04' W 123°25'1818.3
2017-Mar-15 22:33N 49°13' W 123°49'3 2.8
2017-Mar-15 21:33N 49°12' W 123°53'1918.5
2017-Mar-15 20:33N 49°07' W 123°26'1313.4
2017-Mar-15 19:33N 49°00' W 123°08'1111.3
2017-Mar-15 18:33N 49°03' W 123°25'1919.1
2017-Mar-15 17:34N 49°13' W 123°50'3 2.7
2017-Mar-15 16:33N 49°11' W 123°53'1817.7
2017-Mar-15 15:33N 49°06' W 123°26'1413.8
2017-Mar-15 14:33N 49°00' W 123°08'1211.7
2017-Mar-15 13:33N 49°03' W 123°25'1918.7
2017-Mar-15 12:33N 49°13' W 123°50'4 4.2
2017-Mar-15 11:33N 49°10' W 123°53'0 0.0
2017-Mar-15 10:33N 49°10' W 123°53'0 0.0
2017-Mar-15 09:33N 49°10' W 123°53'0 0.0
2017-Mar-15 08:33N 49°10' W 123°53'1 1.0
2017-Mar-15 07:33N 49°11' W 123°53'1817.5
2017-Mar-15 06:33N 49°07' W 123°27'1414.1
2017-Mar-15 05:33N 49°00' W 123°08'1111.4
2017-Mar-15 04:33N 49°03' W 123°25'1918.9
2017-Mar-15 03:33N 49°13' W 123°49'1 1.2
2017-Mar-15 02:33N 49°13' W 123°51'1918.8
2017-Mar-15 01:33N 49°05' W 123°24'1211.8
2017-Mar-15 00:33N 49°00' W 123°08'1312.9
2017-Mar-14 23:33N 49°04' W 123°27'1817.9
2017-Mar-14 22:34N 49°13' W 123°50'2 2.1
2017-Mar-14 21:33N 49°12' W 123°53'1818.0
2017-Mar-14 20:33N 49°07' W 123°27'1413.8
2017-Mar-14 19:33N 49°00' W 123°08'1111.3
2017-Mar-14 18:33N 49°03' W 123°25'1919.2
2017-Mar-14 17:33N 49°13' W 123°50'2 1.7
2017-Mar-14 16:33N 49°12' W 123°53'1818.4
2017-Mar-14 15:33N 49°06' W 123°26'1313.4
2017-Mar-14 14:33N 49°00' W 123°08'1111.4
2017-Mar-14 13:33N 49°03' W 123°25'1919.0
2017-Mar-14 12:33N 49°13' W 123°50'4 3.9
2017-Mar-14 11:33N 49°10' W 123°53'0 0.0
2017-Mar-14 10:33N 49°10' W 123°53'0 0.0
2017-Mar-14 09:23N 49°10' W 123°53'0 0.0
2017-Mar-14 08:33N 49°10' W 123°53'1 0.5
2017-Mar-14 07:33N 49°10' W 123°53'1717.1
2017-Mar-14 06:33N 49°07' W 123°28'1413.0
2017-Mar-14 05:27N 49°00' W 123°08'1112.7
2017-Mar-14 04:33N 49°04' W 123°25'1919.0
2017-Mar-14 03:33N 49°13' W 123°50'1 1.4
2017-Mar-14 02:33N 49°13' W 123°52'1918.8
2017-Mar-14 01:33N 49°06' W 123°25'1212.3
2017-Mar-14 00:33N 49°00' W 123°08'1313.2
2017-Mar-13 23:33N 49°05' W 123°27'1817.9
2017-Mar-13 22:33N 49°13' W 123°51'1 1.3
2017-Mar-13 21:32N 49°12' W 123°53'1717.6
2017-Mar-13 20:33N 49°07' W 123°28'1514.6
2017-Mar-13 19:33N 49°00' W 123°08'1111.4
2017-Mar-13 18:33N 49°03' W 123°25'1918.8
2017-Mar-13 17:33N 49°13' W 123°49'3 3.0
2017-Mar-13 16:33N 49°11' W 123°53'1918.6
2017-Mar-13 15:33N 49°06' W 123°26'1313.1
2017-Mar-13 14:34N 49°00' W 123°08'1312.8
2017-Mar-13 13:33N 49°04' W 123°27'1918.8
2017-Mar-13 12:34N 49°12' W 123°53'2 2.2
2017-Mar-13 11:33N 49°10' W 123°53'  
Track history (hours):
 
Tides and Currents Weather Stations Pressure Air Temp Water Temp Dewpoint Dewpoint Depression Visibility Wind Speed Wind Dir Waves Ship Positions

Coastal Inspiration

Last reported at 2017-Mar-23 12:33 UTC. Time now 2017-Mar-23 12:33 UTC.
Position N 49°13' W 123°49'.

Length 160 m; draft 6 m.

Type: Ship. MMSI: 316011408.

Date/timePositionNaut miles runAvg speedWind from/ knotsBaromVisibWave heightAir tempDewpointWater temp
2017-Mar-23 12:33N 49°13' W 123°49'4 4.2
2017-Mar-23 11:29N 49°10' W 123°53'0 0.0
2017-Mar-23 10:11N 49°10' W 123°53'0 0.0
2017-Mar-23 08:16N 49°10' W 123°53'0 0.2
2017-Mar-23 07:33N 49°10' W 123°53'1716.4
2017-Mar-23 06:32N 49°07' W 123°28'1515.2
2017-Mar-23 05:33N 49°00' W 123°08'1111.5
2017-Mar-23 04:34N 49°04' W 123°25'1919.0
2017-Mar-23 03:33N 49°13' W 123°50'1 1.1
2017-Mar-23 02:33N 49°13' W 123°52'1818.3
2017-Mar-23 01:33N 49°06' W 123°25'1312.8
2017-Mar-23 00:33N 49°00' W 123°08'1312.6
2017-Mar-22 23:33N 49°04' W 123°26'1918.7
2017-Mar-22 22:33N 49°12' W 123°52'1 1.0
2017-Mar-22 21:33N 49°12' W 123°53'1818.3
2017-Mar-22 20:33N 49°06' W 123°26'1313.6
2017-Mar-22 19:33N 49°00' W 123°08'1211.9
2017-Mar-22 18:33N 49°04' W 123°25'1918.3
2017-Mar-22 17:32N 49°13' W 123°50'3 2.8
2017-Mar-22 16:33N 49°12' W 123°53'1717.6
2017-Mar-22 15:33N 49°07' W 123°28'1414.4
2017-Mar-22 14:33N 49°00' W 123°08'1111.4
2017-Mar-22 13:33N 49°03' W 123°25'1918.9
2017-Mar-22 12:33N 49°13' W 123°50'4 3.9
2017-Mar-22 11:25N 49°10' W 123°53'0 0.0
2017-Mar-22 10:31N 49°10' W 123°53'0 0.0
2017-Mar-22 09:18N 49°10' W 123°53'0 0.0
2017-Mar-22 08:12N 49°10' W 123°53'2 2.5
2017-Mar-22 07:34N 49°11' W 123°53'1817.7
2017-Mar-22 06:32N 49°07' W 123°26'1414.1
2017-Mar-22 05:34N 49°00' W 123°08'1413.8
2017-Mar-22 04:33N 49°05' W 123°28'1717.5
2017-Mar-22 03:33N 49°13' W 123°52'1 1.3
2017-Mar-22 02:34N 49°13' W 123°50'1919.2
2017-Mar-22 01:33N 49°05' W 123°23'1111.0
2017-Mar-22 00:33N 49°00' W 123°08'1312.6
2017-Mar-21 23:33N 49°04' W 123°26'1818.3
2017-Mar-21 22:33N 49°13' W 123°51'1 0.9
2017-Mar-21 21:33N 49°12' W 123°52'1818.5
2017-Mar-21 20:33N 49°06' W 123°26'1313.2
2017-Mar-21 19:33N 49°00' W 123°08'1111.0
2017-Mar-21 18:33N 49°03' W 123°24'1919.0
2017-Mar-21 17:33N 49°13' W 123°49'1 0.9
2017-Mar-21 16:33N 49°13' W 123°51'1818.0
2017-Mar-21 15:33N 49°06' W 123°25'1312.5
2017-Mar-21 14:33N 49°00' W 123°08'1111.6
2017-Mar-21 13:33N 49°03' W 123°25'1918.5
2017-Mar-21 12:33N 49°13' W 123°49'5 4.5
2017-Mar-21 11:33N 49°10' W 123°53'0 0.0
2017-Mar-21 10:29N 49°10' W 123°53'0 0.0
2017-Mar-21 09:17N 49°10' W 123°53'0 0.0
2017-Mar-21 08:04N 49°10' W 123°53'0 0.9
2017-Mar-21 07:33N 49°10' W 123°53'1716.9
2017-Mar-21 06:33N 49°07' W 123°28'1514.7
2017-Mar-21 05:33N 49°00' W 123°08'1212.5
2017-Mar-21 04:33N 49°04' W 123°26'1817.7
2017-Mar-21 03:33N 49°13' W 123°50'1 1.3
2017-Mar-21 02:34N 49°13' W 123°51'1919.0
2017-Mar-21 01:33N 49°06' W 123°24'1211.9
2017-Mar-21 00:33N 49°00' W 123°08'1212.5
2017-Mar-20 23:33N 49°04' W 123°26'1818.4
2017-Mar-20 22:34N 49°13' W 123°51'1 1.0
2017-Mar-20 21:33N 49°12' W 123°52'1918.5
2017-Mar-20 20:33N 49°06' W 123°26'1312.7
2017-Mar-20 19:33N 49°00' W 123°08'1111.3
2017-Mar-20 18:33N 49°03' W 123°24'1918.7
2017-Mar-20 17:33N 49°13' W 123°49'2 1.8
2017-Mar-20 16:33N 49°13' W 123°52'1918.9
2017-Mar-20 15:33N 49°06' W 123°25'1212.2
2017-Mar-20 14:33N 49°00' W 123°08'1312.6
2017-Mar-20 13:33N 49°05' W 123°26'1817.5
2017-Mar-20 12:33N 49°13' W 123°50'4 1.9
2017-Mar-20 10:27N 49°10' W 123°53'0 0.0
2017-Mar-20 08:14N 49°10' W 123°53'1 1.8
2017-Mar-20 07:34N 49°11' W 123°53'1717.3
2017-Mar-20 06:33N 49°07' W 123°28'1414.4
2017-Mar-20 05:33N 49°00' W 123°08'1212.1
2017-Mar-20 04:34N 49°04' W 123°26'1817.9
2017-Mar-20 03:34N 49°13' W 123°49'3 2.7
2017-Mar-20 02:33N 49°12' W 123°53'1919.0
2017-Mar-20 01:33N 49°06' W 123°25'1312.8
2017-Mar-20 00:33N 49°00' W 123°08'1212.5
2017-Mar-19 23:33N 49°04' W 123°26'1918.6
2017-Mar-19 22:34N 49°12' W 123°52'1 1.0
2017-Mar-19 21:34N 49°12' W 123°53'1818.2
2017-Mar-19 20:33N 49°06' W 123°26'1313.4
2017-Mar-19 19:33N 49°00' W 123°08'1212.4
2017-Mar-19 18:33N 49°04' W 123°26'1818.3
2017-Mar-19 17:34N 49°13' W 123°50'4 3.6
2017-Mar-19 16:30N 49°10' W 123°53'0 0.0
2017-Mar-19 15:18N 49°10' W 123°53'0 0.0
2017-Mar-19 13:17N 49°10' W 123°53'0 0.0
2017-Mar-19 11:16N 49°10' W 123°53'0 0.0
2017-Mar-19 10:22N 49°10' W 123°53'0 0.0
2017-Mar-19 08:15N 49°10' W 123°53'0 0.0
2017-Mar-19 07:17N 49°10' W 123°53'0 0.0
2017-Mar-19 06:32N 49°10' W 123°53'0 0.0
2017-Mar-19 05:29N 49°10' W 123°53'0 0.0
2017-Mar-19 04:28N 49°10' W 123°53'0 0.0
2017-Mar-19 03:04N 49°10' W 123°53'3 6.2
2017-Mar-19 02:33N 49°13' W 123°51'1818.3
2017-Mar-19 01:33N 49°06' W 123°25'1312.6
2017-Mar-19 00:33N 49°00' W 123°08'1312.9
2017-Mar-18 23:33N 49°04' W 123°27'1717.3
2017-Mar-18 22:33N 49°13' W 123°49'3 3.1
2017-Mar-18 21:33N 49°11' W 123°53'1818.3
2017-Mar-18 20:33N 49°06' W 123°26'1313.4
2017-Mar-18 19:33N 49°00' W 123°08'1111.3
2017-Mar-18 18:33N 49°03' W 123°25'1919.0
2017-Mar-18 17:33N 49°13' W 123°50'2 1.5
2017-Mar-18 16:33N 49°12' W 123°52'1818.3
2017-Mar-18 15:33N 49°06' W 123°26'1312.7
2017-Mar-18 14:31N 49°00' W 123°08'1212.9
2017-Mar-18 13:33N 49°04' W 123°26'1818.1
2017-Mar-18 12:34N 49°13' W 123°51'4 2.9
2017-Mar-18 11:21N 49°10' W 123°53'0 0.0
2017-Mar-18 10:18N 49°10' W 123°53'0 0.0
2017-Mar-18 08:11N 49°10' W 123°53'1 1.0
2017-Mar-18 07:33N 49°10' W 123°53'1717.3
2017-Mar-18 06:33N 49°07' W 123°28'1414.3
2017-Mar-18 05:33N 49°00' W 123°08'1212.0
2017-Mar-18 04:33N 49°03' W 123°26'1918.7
2017-Mar-18 03:33N 49°14' W 123°49'2 1.8
2017-Mar-18 02:33N 49°13' W 123°52'1818.3
2017-Mar-18 01:33N 49°06' W 123°26'1313.1
2017-Mar-18 00:33N 49°00' W 123°08'1212.2
2017-Mar-17 23:33N 49°04' W 123°26'1919.1
2017-Mar-17 22:33N 49°12' W 123°52'1 0.5
2017-Mar-17 21:33N 49°12' W 123°53'2019.9
2017-Mar-17 20:34N 49°06' W 123°25'1210.2
2017-Mar-17 19:22N 49°00' W 123°08'1214.6
2017-Mar-17 18:33N 49°04' W 123°25'1818.3
2017-Mar-17 17:33N 49°13' W 123°49'2 1.5
2017-Mar-17 16:33N 49°13' W 123°52'1817.9
2017-Mar-17 15:33N 49°06' W 123°26'1313.0
2017-Mar-17 14:32N 49°00' W 123°08'1212.6
2017-Mar-17 13:33N 49°04' W 123°26'1818.0
2017-Mar-17 12:33N 49°13' W 123°50'4 1.9
2017-Mar-17 10:26N 49°10' W 123°53'0 0.0
2017-Mar-17 08:25N 49°10' W 123°53'5 6.2
2017-Mar-17 07:34N 49°13' W 123°47'1918.7
2017-Mar-17 06:33N 49°04' W 123°21'10 9.5
2017-Mar-17 05:33N 49°00' W 123°08'1515.2
2017-Mar-17 04:33N 49°06' W 123°29'1616.3
2017-Mar-17 03:34N 49°10' W 123°53'5 4.7
2017-Mar-17 02:32N 49°13' W 123°48'1818.8
2017-Mar-17 01:33N 49°05' W 123°23'1110.7
2017-Mar-17 00:33N 49°00' W 123°08'1313.3
2017-Mar-16 23:33N 49°05' W 123°27'1717.2
2017-Mar-16 22:33N 49°13' W 123°50'3 2.8
2017-Mar-16 21:33N 49°11' W 123°53'1818.1
2017-Mar-16 20:33N 49°07' W 123°27'1413.8
2017-Mar-16 19:33N 49°00' W 123°08'1211.8
2017-Mar-16 18:33N 49°04' W 123°25'1918.7
2017-Mar-16 17:33N 49°13' W 123°50'1 0.9
2017-Mar-16 16:33N 49°13' W 123°51'1818.2
2017-Mar-16 15:33N 49°06' W 123°26'1313.0
2017-Mar-16 14:33N 49°00' W 123°08'1212.1
2017-Mar-16 13:33N 49°04' W 123°25'1817.9
2017-Mar-16 12:33N 49°13' W 123°49'4 4.2
2017-Mar-16 11:33N 49°10' W 123°53'0 0.0
2017-Mar-16 10:33N 49°10' W 123°53'0 0.0
2017-Mar-16 09:33N 49°10' W 123°53'0 0.0
2017-Mar-16 08:33N 49°10' W 123°53'0 0.3
2017-Mar-16 07:34N 49°10' W 123°53'1716.5
2017-Mar-16 06:32N 49°07' W 123°28'1515.0
2017-Mar-16 05:33N 49°00' W 123°08'1110.8
2017-Mar-16 04:33N 49°03' W 123°24'1919.3
2017-Mar-16 03:34N 49°13' W 123°49'3 3.3
2017-Mar-16 02:33N 49°11' W 123°53'1818.0
2017-Mar-16 01:33N 49°06' W 123°27'1413.7
2017-Mar-16 00:33N 49°00' W 123°08'1211.9
2017-Mar-15 23:33N 49°04' W 123°25'1818.3
2017-Mar-15 22:33N 49°13' W 123°49'3 2.8
2017-Mar-15 21:33N 49°12' W 123°53'1918.5
2017-Mar-15 20:33N 49°07' W 123°26'1313.4
2017-Mar-15 19:33N 49°00' W 123°08'1111.3
2017-Mar-15 18:33N 49°03' W 123°25'1919.1
2017-Mar-15 17:34N 49°13' W 123°50'3 2.7
2017-Mar-15 16:33N 49°11' W 123°53'1817.7
2017-Mar-15 15:33N 49°06' W 123°26'1413.8
2017-Mar-15 14:33N 49°00' W 123°08'1211.7
2017-Mar-15 13:33N 49°03' W 123°25'1918.7
2017-Mar-15 12:33N 49°13' W 123°50'4 4.2
2017-Mar-15 11:33N 49°10' W 123°53'0 0.0
2017-Mar-15 10:33N 49°10' W 123°53'0 0.0
2017-Mar-15 09:33N 49°10' W 123°53'0 0.0
2017-Mar-15 08:33N 49°10' W 123°53'1 1.0
2017-Mar-15 07:33N 49°11' W 123°53'1817.5
2017-Mar-15 06:33N 49°07' W 123°27'1414.1
2017-Mar-15 05:33N 49°00' W 123°08'1111.4
2017-Mar-15 04:33N 49°03' W 123°25'1918.9
2017-Mar-15 03:33N 49°13' W 123°49'1 1.2
2017-Mar-15 02:33N 49°13' W 123°51'1918.8
2017-Mar-15 01:33N 49°05' W 123°24'1211.8
2017-Mar-15 00:33N 49°00' W 123°08'1312.9
2017-Mar-14 23:33N 49°04' W 123°27'1817.9
2017-Mar-14 22:34N 49°13' W 123°50'2 2.1
2017-Mar-14 21:33N 49°12' W 123°53'1818.0
2017-Mar-14 20:33N 49°07' W 123°27'1413.8
2017-Mar-14 19:33N 49°00' W 123°08'1111.3
2017-Mar-14 18:33N 49°03' W 123°25'1919.2
2017-Mar-14 17:33N 49°13' W 123°50'2 1.7
2017-Mar-14 16:33N 49°12' W 123°53'1818.4
2017-Mar-14 15:33N 49°06' W 123°26'1313.4
2017-Mar-14 14:33N 49°00' W 123°08'1111.4
2017-Mar-14 13:33N 49°03' W 123°25'1919.0
2017-Mar-14 12:33N 49°13' W 123°50'4 3.9
2017-Mar-14 11:33N 49°10' W 123°53'0 0.0
2017-Mar-14 10:33N 49°10' W 123°53'0 0.0
2017-Mar-14 09:23N 49°10' W 123°53'0 0.0
2017-Mar-14 08:33N 49°10' W 123°53'1 0.5
2017-Mar-14 07:33N 49°10' W 123°53'1717.1
2017-Mar-14 06:33N 49°07' W 123°28'1413.0
2017-Mar-14 05:27N 49°00' W 123°08'1112.7
2017-Mar-14 04:33N 49°04' W 123°25'1919.0
2017-Mar-14 03:33N 49°13' W 123°50'1 1.4
2017-Mar-14 02:33N 49°13' W 123°52'1918.8
2017-Mar-14 01:33N 49°06' W 123°25'1212.3
2017-Mar-14 00:33N 49°00' W 123°08'1313.2
2017-Mar-13 23:33N 49°05' W 123°27'1817.9
2017-Mar-13 22:33N 49°13' W 123°51'1 1.3
2017-Mar-13 21:32N 49°12' W 123°53'1717.6
2017-Mar-13 20:33N 49°07' W 123°28'1514.6
2017-Mar-13 19:33N 49°00' W 123°08'1111.4
2017-Mar-13 18:33N 49°03' W 123°25'1918.8
2017-Mar-13 17:33N 49°13' W 123°49'3 3.0
2017-Mar-13 16:33N 49°11' W 123°53'1918.6
2017-Mar-13 15:33N 49°06' W 123°26'1313.1
2017-Mar-13 14:34N 49°00' W 123°08'1312.8
2017-Mar-13 13:33N 49°04' W 123°27'1918.8
2017-Mar-13 12:34N 49°12' W 123°53'2 2.2
2017-Mar-13 11:33N 49°10' W 123°53'  

Dump ship's entire track history